Terminal Aerodrome Forecast
Issued by NWS

Home | Current Version | Previous Version | Text Only | Print | Product List | Glossary Off
Versions: 1 2 3 4 5 6 7 8 9 10 11 12 13 14 15 16 17 18 19

000
FTUS43 KGRB 161100
TAFRHI
TAF
KRHI 161134Z 1612/1712 11005KT P6SM SCT040 OVC080
     FM161400 12008G14KT P6SM -SN SCT025 OVC040
      TEMPO 1614/1616 2SM -SN BKN020
     FM161600 11013G21KT 1 1/2SM -SN BKN015 OVC025
     FM162000 10013G21KT 1 1/2SM -SN BKN012 OVC020 WS015/15040KT
     FM170700 11010KT 1/2SM SN VV006 WS015/15040KT=

USA.gov is the U.S. government's official web portal to all federal, state and local government web resources and services.